Time;durP1;ratioP1;P1;durP2;ratioP2;P2;SDS_P1;SDS_P2;PMS_P1;PMS_P2;Temp;Humidity;BMP_temperature;BMP_pressure;BME280_temperature;BME280_humidity;BME280_pressure;Samples;Min_cycle;Max_cycle;Signal;HPM_P1;HPM_P2
2022/04/28 00:00:28;;;;;;;21.90;20.80;;;;;;;-141.02;100.00;82657.91;5114131;28;20197;-82
2022/04/28 00:02:55;;;;;;;21.65;20.50;;;;;;;-141.02;100.00;82688.97;5113967;28;20414;-79
2022/04/28 00:05:23;;;;;;;21.10;20.00;;;;;;;-141.02;100.00;82673.44;5113837;28;20295;-78
2022/04/28 00:07:50;;;;;;;21.52;20.42;;;;;;;-141.02;100.00;82605.47;5113820;28;20197;-85
2022/04/28 00:10:17;;;;;;;22.25;21.05;;;;;;;-141.02;100.00;82661.78;5114063;28;20302;-78
2022/04/28 00:12:45;;;;;;;20.92;19.83;;;;;;;-141.02;100.00;82622.94;5113911;28;20229;-83
2022/04/28 00:15:12;;;;;;;21.45;20.35;;;;;;;-141.02;100.00;82630.72;5113801;28;20189;-76
2022/04/28 00:17:41;;;;;;;22.13;20.92;;;;;;;-141.02;100.00;82615.16;5114246;28;20271;-78
2022/04/28 00:20:09;;;;;;;21.10;20.00;;;;;;;-141.02;100.00;82630.72;5113977;28;20277;-72
2022/04/28 00:22:36;;;;;;;21.50;20.40;;;;;;;-141.02;100.00;82626.81;5113726;28;20276;-73
2022/04/28 00:25:05;;;;;;;21.20;20.05;;;;;;;-141.02;100.00;82669.56;5113664;28;20228;-81
2022/04/28 00:27:33;;;;;;;21.33;20.23;;;;;;;-141.02;100.00;82654.03;5113407;28;20228;-79
2022/04/28 00:30:01;;;;;;;20.63;19.52;;;;;;;-141.02;100.00;82638.47;5113250;28;20313;-80
2022/04/28 00:32:28;;;;;;;20.73;19.63;;;;;;;-141.02;100.00;82626.81;5113518;28;20200;-78
2022/04/28 00:34:56;;;;;;;22.08;20.88;;;;;;;-141.02;100.00;82607.41;5113600;28;20196;-75
2022/04/28 00:37:24;;;;;;;22.38;21.17;;;;;;;-141.02;100.00;82657.91;5113363;28;20189;-76
2022/04/28 00:39:51;;;;;;;21.90;20.70;;;;;;;-141.02;100.00;82622.94;5113724;28;20666;-84
2022/04/28 00:42:19;;;;;;;21.55;20.45;;;;;;;-141.02;99.83;82607.41;5113075;28;20284;-84
2022/04/28 00:44:46;;;;;;;22.92;21.73;;;;;;;-141.02;99.56;82611.28;5113117;28;20233;-80
2022/04/28 00:47:15;;;;;;;22.40;21.20;;;;;;;-141.02;99.44;82628.78;5113364;28;20200;-74
2022/04/28 00:52:28;;;;;;;21.95;20.75;;;;;;;-141.02;99.11;82621.00;5112888;28;20184;-77
2022/04/28 00:54:56;;;;;;;22.60;21.40;;;;;;;-141.02;98.82;82622.94;5113026;28;20663;-77
2022/04/28 00:57:24;;;;;;;22.42;21.23;;;;;;;-141.02;99.50;82621.00;5113380;28;20196;-86
2022/04/28 00:59:52;;;;;;;21.98;20.77;;;;;;;-141.02;99.00;82638.47;5113508;28;20285;-78
2022/04/28 01:02:20;;;;;;;21.40;20.30;;;;;;;-141.02;98.35;82358.78;5112998;28;20220;-79
2022/04/28 01:04:47;;;;;;;21.60;20.50;;;;;;;-141.02;99.45;82617.13;5113621;28;20231;-85
2022/04/28 01:07:15;;;;;;;20.33;19.23;;;;;;;-141.02;100.00;82626.81;5113990;28;20279;-78
2022/04/28 01:09:44;;;;;;;21.02;19.92;;;;;;;-141.02;100.00;82652.06;5113480;28;20610;-81
2022/04/28 01:12:15;;;;;;;21.30;20.20;;;;;;;-141.02;100.00;82646.25;5112917;28;20224;-84
2022/04/28 01:14:43;;;;;;;21.55;20.45;;;;;;;-141.02;100.00;82510.28;5113014;28;20196;-84
2022/04/28 01:17:10;;;;;;;21.20;20.10;;;;;;;-141.02;100.00;82677.31;5113262;28;20201;-79
2022/04/28 01:19:37;;;;;;;20.30;19.20;;;;;;;-141.02;100.00;82646.25;5112757;28;20280;-78
2022/04/28 01:22:06;;;;;;;20.83;19.73;;;;;;;-141.02;100.00;82630.72;5112944;28;20279;-75
2022/04/28 01:24:36;;;;;;;20.45;19.42;;;;;;;-141.02;100.00;82661.78;5112736;28;20272;-82
2022/04/28 01:27:06;;;;;;;21.95;20.75;;;;;;;-141.02;100.00;82640.41;5112739;28;20228;-79
2022/04/28 01:29:33;;;;;;;21.40;20.30;;;;;;;-141.02;100.00;82657.91;5112578;28;20219;-79
2022/04/28 01:32:01;;;;;;;20.90;19.80;;;;;;;-141.02;100.00;82657.91;5112306;28;20195;-80
2022/04/28 01:34:28;;;;;;;20.98;19.88;;;;;;;-141.02;100.00;82696.75;5112620;28;20200;-80
2022/04/28 01:36:55;;;;;;;20.08;18.98;;;;;;;-141.02;100.00;82716.16;5112239;28;20284;-78
2022/04/28 01:39:23;;;;;;;20.30;19.20;;;;;;;-141.02;100.00;82677.31;5112646;28;20205;-80
2022/04/28 01:41:50;;;;;;;21.15;20.05;;;;;;;-141.02;100.00;82700.63;5112291;28;20197;-82
2022/04/28 01:44:17;;;;;;;21.40;20.30;;;;;;;-141.02;100.00;82688.97;5112195;28;20637;-84
2022/04/28 01:46:45;;;;;;;21.10;20.00;;;;;;;-141.02;100.00;82692.88;5112264;28;20236;-78
2022/04/28 01:49:12;;;;;;;21.20;20.10;;;;;;;-141.02;100.00;82640.41;5112413;28;20189;-80
2022/04/28 01:57:09;;;;;;;21.23;20.13;;;;;;;-141.02;100.00;82774.44;5112276;28;20188;-80
2022/04/28 01:59:36;;;;;;;20.48;19.45;;;;;;;-141.02;100.00;82848.25;5112399;28;20276;-78
2022/04/28 02:02:04;;;;;;;21.17;20.08;;;;;;;-141.02;100.00;82879.34;5112194;28;20370;-81
2022/04/28 02:04:31;;;;;;;21.15;20.05;;;;;;;-141.02;100.00;82902.66;5115502;28;20272;-78
2022/04/28 02:06:58;;;;;;;19.60;18.60;;;;;;;-141.02;100.00;82867.69;5116309;28;20203;-76
2022/04/28 02:09:27;;;;;;;20.52;19.42;;;;;;;-141.02;100.00;82852.16;5116290;28;20275;-74
2022/04/28 02:11:54;;;;;;;21.63;20.52;;;;;;;-141.02;100.00;82945.38;5116053;28;20228;-79
2022/04/28 02:14:22;;;;;;;20.90;19.80;;;;;;;-141.02;100.00;83032.78;5116637;28;20195;-75
2022/04/28 02:16:49;;;;;;;21.00;19.90;;;;;;;-141.02;100.00;83058.06;5116755;28;20651;-77
2022/04/28 02:19:16;;;;;;;21.65;20.55;;;;;;;-141.02;100.00;83089.13;5116540;28;20200;-81
2022/04/28 02:21:43;;;;;;;21.45;20.35;;;;;;;-141.02;100.00;83143.53;5115942;28;20272;-81
2022/04/28 02:24:10;;;;;;;21.60;20.50;;;;;;;-141.02;100.00;83267.84;5115661;28;20280;-76
2022/04/28 02:26:38;;;;;;;20.45;19.45;;;;;;;-141.02;100.00;83283.41;5115907;28;20233;-81
2022/04/28 02:29:05;;;;;;;20.45;19.45;;;;;;;-141.02;100.00;83293.09;5115873;28;20228;-77
2022/04/28 02:31:32;;;;;;;21.73;20.63;;;;;;;-141.02;100.00;83417.44;5115793;28;20233;-84
2022/04/28 02:33:59;;;;;;;20.20;19.20;;;;;;;-141.02;100.00;83487.38;5115414;28;20287;-80
2022/04/28 02:36:26;;;;;;;18.85;17.95;;;;;;;-141.02;100.00;83524.28;5116021;28;20211;-79
2022/04/28 02:38:53;;;;;;;19.17;18.17;;;;;;;-141.02;100.00;83516.53;5115659;28;20272;-81
2022/04/28 02:41:21;;;;;;;18.73;17.83;;;;;;;-141.02;100.00;83629.22;5115318;28;20196;-74
2022/04/28 02:43:50;;;;;;;19.30;18.30;;;;;;;-141.02;100.00;83638.91;5115599;28;20197;-81
2022/04/28 02:46:17;;;;;;;18.80;17.90;;;;;;;-141.02;100.00;83718.59;5115343;28;20193;-80
2022/04/28 02:48:44;;;;;;;19.30;18.30;;;;;;;-141.02;100.00;83780.75;5115185;28;20193;-76
2022/04/28 02:51:12;;;;;;;18.48;17.58;;;;;;;-141.02;100.00;83815.72;5114995;28;20224;-80
2022/04/28 02:53:39;;;;;;;19.35;18.40;;;;;;;-141.02;100.00;83864.31;5114434;28;20280;-80
2022/04/28 02:56:06;;;;;;;18.95;18.05;;;;;;;-141.02;100.00;83938.16;5115008;28;20284;-77
2022/04/28 02:58:34;;;;;;;18.48;17.58;;;;;;;-141.02;100.00;84052.78;5114918;28;20200;-78
2022/04/28 03:01:03;;;;;;;18.40;17.50;;;;;;;-141.02;100.00;84159.66;5116134;28;20189;-83
2022/04/28 03:03:30;;;;;;;18.25;17.35;;;;;;;-141.02;100.00;84177.16;5114649;28;20732;-74
2022/04/28 03:11:26;;;;;;;17.90;17.10;;;;;;;-141.02;100.00;84031.41;5115052;28;20245;-78
2022/04/28 03:13:54;;;;;;;17.95;17.08;;;;;;;-141.02;100.00;84313.16;5114654;28;20675;-83
2022/04/28 03:16:22;;;;;;;19.10;18.20;;;;;;;-141.02;100.00;84320.94;5114263;28;20274;-79
2022/04/28 03:18:49;;;;;;;18.30;17.40;;;;;;;-141.02;100.00;84398.69;5116158;28;20233;-84
2022/04/28 03:21:16;;;;;;;17.88;17.02;;;;;;;-141.02;100.00;84488.06;5122978;28;20280;-79
2022/04/28 03:23:43;;;;;;;17.88;17.00;;;;;;;-141.02;100.00;84525.00;5123611;28;20292;-81
2022/04/28 03:26:11;;;;;;;18.17;17.27;;;;;;;-141.02;100.00;84649.38;5115183;28;20193;-83
2022/04/28 03:28:38;;;;;;;18.20;17.30;;;;;;;-141.02;100.00;84678.53;5117915;27;20252;-77
2022/04/28 03:31:06;;;;;;;17.65;16.85;;;;;;;-141.02;100.00;84692.13;5115158;28;20225;-80
2022/04/28 03:33:35;;;;;;;18.63;17.73;;;;;;;-141.02;100.00;84659.09;5115028;28;20588;-75
2022/04/28 03:36:02;;;;;;;18.00;17.10;;;;;;;-141.02;100.00;84653.25;5114691;28;20193;-77
2022/04/28 03:38:29;;;;;;;17.85;16.95;;;;;;;-141.02;100.00;84643.53;5116007;28;20190;-79
2022/04/28 03:40:56;;;;;;;18.10;17.30;;;;;;;-141.02;100.00;84680.47;5116671;28;20201;-73
2022/04/28 03:43:25;;;;;;;17.55;16.75;;;;;;;-141.02;100.00;84709.63;5115504;28;20284;-72
2022/04/28 03:45:52;;;;;;;17.30;16.50;;;;;;;-141.02;100.00;84744.59;5114666;28;20223;-72
2022/04/28 03:48:19;;;;;;;17.00;16.20;;;;;;;-141.02;100.00;84845.66;5114215;28;20738;-79
2022/04/28 03:50:47;;;;;;;17.30;16.50;;;;;;;-141.02;100.00;84861.22;5113891;27;20314;-83
2022/04/28 03:53:15;;;;;;;16.88;16.08;;;;;;;-141.02;100.00;84903.97;5114232;28;20204;-84
2022/04/28 03:55:42;;;;;;;17.00;16.20;;;;;;;-141.02;100.00;84841.78;5113877;28;20647;-85
2022/04/28 03:58:09;;;;;;;17.13;16.33;;;;;;;-141.02;100.00;84890.38;5114047;28;20284;-83
2022/04/28 04:00:36;;;;;;;17.15;16.35;;;;;;;-141.02;100.00;84888.44;5114076;28;20634;-83
2022/04/28 04:03:03;;;;;;;17.52;16.73;;;;;;;-141.02;100.00;84933.13;5113614;28;20685;-80
2022/04/28 04:05:32;;;;;;;17.38;16.58;;;;;;;-141.02;100.00;84935.06;5114165;27;20658;-72
2022/04/28 04:08:00;;;;;;;16.77;15.98;;;;;;;-141.02;100.00;84977.84;5114728;28;20288;-73
2022/04/28 04:10:27;;;;;;;16.63;15.93;;;;;;;-141.02;100.00;85102.22;5114423;28;20276;-79
2022/04/28 04:12:54;;;;;;;16.00;15.30;;;;;;;-141.02;100.00;85226.63;5113572;28;20667;-75
2022/04/28 04:15:22;;;;;;;15.77;15.07;;;;;;;-141.02;100.00;85316.03;5113803;28;20247;-73
2022/04/28 04:17:49;;;;;;;15.13;14.52;;;;;;;-141.02;100.00;85512.38;5113682;28;20197;-75
2022/04/28 04:20:16;;;;;;;16.17;15.48;;;;;;;-141.02;100.00;85658.19;5113726;28;20220;-75
2022/04/28 04:22:43;;;;;;;15.80;15.10;;;;;;;-141.02;100.00;85734.00;5113305;28;20236;-75
2022/04/28 04:25:12;;;;;;;16.23;15.52;;;;;;;-141.02;100.00;85868.13;5113585;28;20272;-76
2022/04/28 04:27:39;;;;;;;16.00;15.30;;;;;;;-141.02;100.00;85984.78;5113172;28;20744;-80
2022/04/28 04:32:50;;;;;;;15.65;15.02;;;;;;;-141.02;100.00;86443.66;5113066;28;20234;-78
2022/04/28 04:35:17;;;;;;;15.70;15.00;;;;;;;-141.02;100.00;86603.09;5113285;28;20655;-78
2022/04/28 04:37:45;;;;;;;15.48;14.88;;;;;;;-141.02;100.00;86614.78;5113098;28;20682;-76
2022/04/28 04:40:14;;;;;;;15.30;14.70;;;;;;;-141.02;100.00;86642.00;5113304;28;20276;-79
2022/04/28 04:42:41;;;;;;;15.70;15.00;;;;;;;-141.02;100.00;86762.56;5113247;28;20208;-77
2022/04/28 04:45:09;;;;;;;16.35;15.65;;;;;;;-141.02;100.00;86782.00;5112916;28;20679;-76
2022/04/28 04:47:37;;;;;;;15.68;15.07;;;;;;;-141.02;100.00;86747.00;5113203;28;20224;-75
2022/04/28 04:50:05;;;;;;;16.55;15.85;;;;;;;-141.02;100.00;86752.84;5113127;28;20200;-78
2022/04/28 04:52:32;;;;;;;15.35;14.75;;;;;;;-141.02;100.00;86834.50;5112790;28;20319;-75
2022/04/28 04:55:00;;;;;;;15.27;14.68;;;;;;;-141.02;100.00;86999.81;5112787;28;20650;-74
2022/04/28 04:57:28;;;;;;;13.98;13.48;;;;;;;-141.02;100.00;87071.78;5113053;28;20249;-77
2022/04/28 04:59:56;;;;;;;13.90;13.40;;;;;;;-141.02;100.00;87312.94;5113301;28;20226;-79
2022/04/28 05:02:24;;;;;;;14.30;13.75;;;;;;;-141.02;100.00;87353.78;5112918;28;20306;-74
2022/04/28 05:04:51;;;;;;;14.18;13.68;;;;;;;-141.02;100.00;87419.91;5112668;28;20189;-78
2022/04/28 05:07:18;;;;;;;13.93;13.43;;;;;;;-141.02;100.00;87486.06;5113036;28;20246;-74
2022/04/28 05:09:46;;;;;;;13.75;13.25;;;;;;;-141.02;100.00;87575.53;5092461;28;20206;-74
2022/04/28 05:12:13;;;;;;;14.13;13.63;;;;;;;-141.02;100.00;87684.44;5092203;28;20221;-74
2022/04/28 05:14:42;;;;;;;14.20;13.70;;;;;;;-141.02;100.00;87758.38;5092487;28;20194;-79
2022/04/28 05:17:09;;;;;;;13.40;12.90;;;;;;;-141.02;100.00;87857.56;5092141;28;20202;-76
2022/04/28 05:19:36;;;;;;;13.55;13.05;;;;;;;-141.02;100.00;87875.09;5092094;28;20219;-75
2022/04/28 05:22:03;;;;;;;13.70;13.20;;;;;;;-141.02;100.00;87945.13;5092680;28;20202;-79
2022/04/28 05:24:30;;;;;;;13.80;13.30;;;;;;;-141.02;100.00;87762.25;5092397;28;20190;-80
2022/04/28 05:26:57;;;;;;;13.63;13.13;;;;;;;-141.02;100.00;87707.78;5092364;28;20198;-78
2022/04/28 05:29:24;;;;;;;13.70;13.20;;;;;;;-141.02;100.00;87548.28;5092193;28;20281;-80
2022/04/28 05:31:52;;;;;;;13.80;13.30;;;;;;;-141.02;100.00;87538.56;5092467;28;20329;-83
2022/04/28 05:34:19;;;;;;;14.25;13.68;;;;;;;-141.02;100.00;87443.25;5092377;28;20201;-77
2022/04/28 05:36:46;;;;;;;13.60;13.10;;;;;;;-141.02;100.00;87396.56;5092376;28;20198;-80
2022/04/28 05:39:14;;;;;;;14.50;13.90;;;;;;;-141.02;100.00;87369.34;5094802;28;20193;-80
2022/04/28 05:41:41;;;;;;;14.23;13.63;;;;;;;-141.02;100.00;87225.41;5096462;28;20193;-83
2022/04/28 05:46:54;;;;;;;14.63;14.02;;;;;;;-141.02;100.00;87219.59;5096451;28;20578;-78
2022/04/28 05:49:22;;;;;;;14.48;13.88;;;;;;;-141.02;100.00;87065.94;5096263;28;20543;-80
2022/04/28 05:51:49;;;;;;;14.05;13.55;;;;;;;-141.02;100.00;87032.88;5095992;28;20283;-74
2022/04/28 05:54:16;;;;;;;13.85;13.35;;;;;;;-141.02;100.00;87025.09;5095967;28;20285;-84
2022/04/28 05:56:43;;;;;;;14.63;14.02;;;;;;;-141.02;100.00;86960.91;5097758;28;20236;-77
2022/04/28 05:59:11;;;;;;;14.13;13.57;;;;;;;-141.02;100.00;86918.13;5096236;28;20704;-79
2022/04/28 06:01:39;;;;;;;14.40;13.80;;;;;;;-141.02;100.00;86914.25;5096106;28;20660;-80
2022/04/28 06:04:07;;;;;;;14.68;14.07;;;;;;;-141.02;100.00;86484.50;5096118;28;20657;-80
2022/04/28 06:06:35;;;;;;;14.60;14.00;;;;;;;-141.02;100.00;87048.44;5095976;28;20280;-83
2022/04/28 06:09:02;;;;;;;13.80;13.30;;;;;;;-141.02;100.00;86828.69;5095985;28;20204;-80
2022/04/28 06:11:29;;;;;;;13.57;13.07;;;;;;;-141.02;100.00;87019.28;5096086;28;20226;-83
2022/04/28 06:13:56;;;;;;;14.07;13.57;;;;;;;-141.02;100.00;87137.91;5096360;28;20254;-82
2022/04/28 06:16:23;;;;;;;14.32;13.82;;;;;;;-141.02;100.00;87307.09;5095784;28;20273;-87
2022/04/28 06:18:50;;;;;;;14.50;14.00;;;;;;;-141.02;100.00;87377.13;5095413;28;20225;-82
2022/04/28 06:21:19;;;;;;;14.70;14.10;;;;;;;-141.02;100.00;87517.16;5097529;28;20244;-81
2022/04/28 06:23:46;;;;;;;14.55;14.05;;;;;;;-141.02;100.00;87559.97;5095596;28;20721;-80
2022/04/28 06:26:13;;;;;;;14.32;13.82;;;;;;;-141.02;100.00;87581.34;5095320;28;20197;-82
2022/04/28 06:28:41;;;;;;;14.70;14.20;;;;;;;-141.02;100.00;87808.94;5095537;28;20681;-81
2022/04/28 06:31:08;;;;;;;13.93;13.43;;;;;;;-141.02;100.00;87735.03;5095826;28;20190;-83
2022/04/28 06:33:35;;;;;;;13.27;12.77;;;;;;;-141.02;100.00;87696.13;5095971;28;20193;-84
2022/04/28 06:36:02;;;;;;;13.90;13.40;;;;;;;-141.02;100.00;87723.34;5095352;28;20193;-84
2022/04/28 06:38:30;;;;;;;13.52;13.02;;;;;;;-141.02;100.00;87719.47;5096047;28;20201;-76
2022/04/28 06:40:57;;;;;;;13.60;13.10;;;;;;;-141.02;100.00;87871.19;5095671;28;20220;-77
2022/04/28 06:43:24;;;;;;;13.30;12.80;;;;;;;-141.02;100.00;88057.94;5097258;28;20273;-82
2022/04/28 06:48:35;;;;;;;13.30;12.85;;;;;;;-141.02;100.00;88447.03;5096141;28;20265;-79
2022/04/28 06:51:02;;;;;;;13.30;12.80;;;;;;;-141.02;100.00;88793.38;5094516;28;20273;-81
2022/04/28 06:53:31;;;;;;;12.50;12.10;;;;;;;-141.02;100.00;88999.63;5095859;28;20202;-73
2022/04/28 06:55:58;;;;;;;12.38;11.98;;;;;;;-141.02;100.00;89203.97;5095929;28;20232;-85
2022/04/28 06:58:25;;;;;;;12.40;12.00;;;;;;;-141.02;100.00;89314.88;5095396;28;20276;-80
2022/04/28 07:00:52;;;;;;;11.90;11.50;;;;;;;-141.02;100.00;89369.38;5095971;28;20243;-79
2022/04/28 07:03:19;;;;;;;11.50;11.10;;;;;;;-141.02;100.00;89548.44;5094729;28;20316;-85
2022/04/28 07:05:46;;;;;;;11.80;11.40;;;;;;;-141.02;100.00;89542.59;5096196;28;20569;-87
2022/04/28 07:08:13;;;;;;;11.20;10.80;;;;;;;-141.02;100.00;89564.00;5095970;28;20267;-83
2022/04/28 07:10:42;;;;;;;11.38;10.98;;;;;;;-141.02;100.00;89497.81;5094907;28;20229;-82
2022/04/28 07:13:09;;;;;;;11.48;11.07;;;;;;;-141.02;100.00;89583.47;5096450;28;20312;-80
2022/04/28 07:15:36;;;;;;;10.65;10.35;;;;;;;-141.02;100.00;89505.59;5095933;28;20194;-81
2022/04/28 07:18:05;;;;;;;10.73;10.43;;;;;;;-141.02;100.00;89209.81;5095664;28;20201;-85
2022/04/28 07:20:32;;;;;;;11.40;11.00;;;;;;;-141.02;100.00;89096.94;5095027;28;20200;-75
2022/04/28 07:23:00;;;;;;;11.60;11.20;;;;;;;-141.02;100.00;88822.56;5095924;28;20281;-88
2022/04/28 07:25:27;;;;;;;12.00;11.60;;;;;;;-141.02;100.00;88579.34;5095908;28;20285;-82
2022/04/28 07:27:57;;;;;;;12.00;11.60;;;;;;;-141.02;100.00;88310.84;5095196;28;20656;-80
2022/04/28 07:30:26;;;;;;;12.70;12.20;;;;;;;-141.02;100.00;88155.22;5095192;28;20242;-78
2022/04/28 07:32:53;;;;;;;13.10;12.60;;;;;;;-141.02;100.00;87894.53;5095117;28;20232;-82
2022/04/28 07:35:23;;;;;;;14.43;13.82;;;;;;;-141.02;100.00;87797.28;5094476;28;20636;-85
2022/04/28 07:37:50;;;;;;;14.48;13.88;;;;;;;-141.02;100.00;87941.22;5095095;28;20725;-84
2022/04/28 07:40:18;;;;;;;14.10;13.50;;;;;;;-141.02;100.00;88030.72;5094556;28;20277;-85
2022/04/28 07:42:45;;;;;;;13.25;12.75;;;;;;;-141.02;100.00;87843.97;5093951;28;20205;-81
2022/04/28 07:45:13;;;;;;;14.18;13.57;;;;;;;-141.02;100.00;87532.72;5094879;28;20197;-78
2022/04/28 07:47:40;;;;;;;15.57;14.88;;;;;;;-141.02;100.00;87318.78;5093972;28;20234;-77
2022/04/28 07:50:10;;;;;;;16.30;15.50;;;;;;;-141.02;100.00;87104.84;5093970;28;20227;-76
2022/04/28 07:52:37;;;;;;;16.67;15.88;;;;;;;-141.02;100.00;87003.72;5093740;28;20711;-76
2022/04/28 07:55:06;;;;;;;17.13;16.23;;;;;;;-141.02;100.00;86855.91;5093588;28;20749;-76
2022/04/28 07:57:34;;;;;;;17.20;16.30;;;;;;;-141.02;100.00;86754.78;5093515;28;20197;-74
2022/04/28 08:00:02;;;;;;;17.88;16.98;;;;;;;-141.02;100.00;86735.34;5093510;28;20197;-77
2022/04/28 08:02:32;;;;;;;17.83;16.92;;;;;;;-141.02;100.00;86564.22;5093778;28;20611;-80
2022/04/28 08:04:59;;;;;;;17.40;16.50;;;;;;;-141.02;100.00;86459.22;5093927;28;20646;-75
2022/04/28 08:07:26;;;;;;;18.67;17.67;;;;;;;-141.02;100.00;86297.81;5093834;28;20202;-75
2022/04/28 08:09:53;;;;;;;17.35;16.55;;;;;;;-141.02;100.00;86241.44;5093656;28;20282;-75
2022/04/28 08:12:20;;;;;;;17.58;16.77;;;;;;;-141.02;100.00;86278.38;5093184;28;20218;-76
2022/04/28 08:14:47;;;;;;;17.40;16.60;;;;;;;-141.02;100.00;86144.22;5093457;28;20229;-84
2022/04/28 08:17:14;;;;;;;17.90;17.00;;;;;;;-141.02;100.00;86117.00;5093656;28;20266;-81
2022/04/28 08:19:42;;;;;;;17.77;16.98;;;;;;;-141.02;100.00;86111.16;5093306;28;20281;-78
2022/04/28 08:22:09;;;;;;;16.95;16.15;;;;;;;-141.02;100.00;86043.13;5093459;28;20663;-80
2022/04/28 08:24:36;;;;;;;16.95;16.15;;;;;;;-141.02;100.00;86047.00;5092982;28;20229;-81
2022/04/28 08:27:04;;;;;;;16.50;15.80;;;;;;;-141.02;100.00;85971.19;5093271;28;20197;-82
2022/04/28 08:29:31;;;;;;;17.05;16.25;;;;;;;-141.02;100.00;85942.03;5093545;28;20737;-82
2022/04/28 08:31:58;;;;;;;17.60;16.80;;;;;;;-141.02;100.00;85920.63;5092768;28;20651;-79
2022/04/28 08:34:25;;;;;;;17.50;16.70;;;;;;;-141.02;100.00;85778.72;5093414;28;20271;-82
2022/04/28 08:36:54;;;;;;;17.40;16.60;;;;;;;-141.02;100.00;85877.84;5093239;28;20222;-79
2022/04/28 08:39:21;;;;;;;17.17;16.38;;;;;;;-141.02;100.00;85805.94;5093085;28;20259;-83
2022/04/28 08:41:49;;;;;;;16.75;15.95;;;;;;;-141.02;100.00;85557.09;5092718;28;20232;-79
2022/04/28 08:44:18;;;;;;;17.25;16.45;;;;;;;-141.02;100.00;85751.50;5092930;28;20197;-82
2022/04/28 08:46:52;;;;;;;17.70;16.90;;;;;;;-141.02;100.00;85724.28;5092593;28;20194;-74
2022/04/28 08:49:22;;;;;;;18.40;17.50;;;;;;;-141.02;100.00;85510.44;5092549;28;20614;-82
2022/04/28 08:51:52;;;;;;;18.00;17.20;;;;;;;-141.02;100.00;85617.34;5092806;28;20228;-75
2022/04/28 08:54:22;;;;;;;17.30;16.50;;;;;;;-141.02;100.00;85642.63;5092733;28;20189;-73
2022/04/28 08:56:52;;;;;;;17.88;17.08;;;;;;;-141.02;100.00;85551.25;5093844;28;20276;-76
2022/04/28 08:59:19;;;;;;;18.30;17.40;;;;;;;-141.02;100.00;85520.16;5092685;28;20634;-82
2022/04/28 09:01:46;;;;;;;17.80;16.90;;;;;;;-141.02;100.00;85440.44;5092685;28;20543;-77
2022/04/28 09:04:13;;;;;;;18.02;17.13;;;;;;;-141.02;100.00;85374.38;5092204;28;20230;-78
2022/04/28 09:06:42;;;;;;;17.60;16.80;;;;;;;-141.02;100.00;85384.09;5092633;28;20251;-83
2022/04/28 09:09:11;;;;;;;18.17;17.27;;;;;;;-141.02;100.00;85349.09;5092392;28;20727;-78
2022/04/28 09:11:41;;;;;;;17.63;16.73;;;;;;;-141.02;100.00;85257.72;5092584;28;20244;-74
2022/04/28 09:14:12;;;;;;;18.17;17.27;;;;;;;-141.02;100.00;85228.56;5091466;28;20279;-80
2022/04/28 09:16:42;;;;;;;17.90;17.00;;;;;;;-141.02;100.00;85249.97;5092489;28;20586;-79
2022/04/28 09:19:10;;;;;;;18.23;17.33;;;;;;;-141.02;100.00;85213.03;5092189;28;20277;-80
2022/04/28 09:21:39;;;;;;;17.38;16.58;;;;;;;-141.02;100.00;85199.41;5092123;28;20197;-77
2022/04/28 09:24:06;;;;;;;17.70;16.80;;;;;;;-141.02;100.00;85199.41;5092436;28;20251;-78
2022/04/28 09:26:34;;;;;;;18.20;17.30;;;;;;;-141.02;100.00;85129.44;5092523;28;20198;-74
2022/04/28 09:29:04;;;;;;;17.73;16.90;;;;;;;-141.02;100.00;85178.03;5092355;28;20260;-77
2022/04/28 09:31:35;;;;;;;18.05;17.15;;;;;;;-141.02;100.00;85049.75;5092599;28;20189;-80
2022/04/28 09:34:07;;;;;;;17.80;16.90;;;;;;;-141.02;100.00;85005.03;5092216;28;20232;-81
2022/04/28 09:36:34;;;;;;;17.65;16.75;;;;;;;-141.02;100.00;84970.06;5091993;28;20597;-77
2022/04/28 09:39:02;;;;;;;17.50;16.67;;;;;;;-141.02;100.00;84966.19;5093019;28;20637;-76
2022/04/28 09:44:13;;;;;;;17.73;16.83;;;;;;;-141.02;100.00;84841.78;5071032;28;20292;-78
2022/04/28 09:46:42;;;;;;;18.25;17.35;;;;;;;-141.02;100.00;84822.34;5092396;28;20227;-74
2022/04/28 09:49:10;;;;;;;18.20;17.30;;;;;;;-141.02;100.00;84773.75;5092228;28;20227;-74
2022/04/28 09:51:39;;;;;;;17.58;16.77;;;;;;;-141.02;100.00;84765.97;5092355;28;20255;-77
2022/04/28 09:54:09;;;;;;;17.98;17.08;;;;;;;-141.02;100.00;84783.47;5091709;28;20236;-79
2022/04/28 09:56:37;;;;;;;17.10;16.27;;;;;;;-141.02;100.00;84752.38;5091816;28;20197;-84
2022/04/28 09:59:06;;;;;;;17.65;16.75;;;;;;;-141.02;100.00;84690.19;5092077;28;20732;-77
2022/04/28 10:01:35;;;;;;;17.58;16.75;;;;;;;-141.02;100.00;84616.34;5092071;28;20197;-73
2022/04/28 10:04:02;;;;;;;17.90;17.00;;;;;;;-141.02;100.00;84624.09;5091861;28;20233;-77
2022/04/28 10:06:34;;;;;;;18.50;17.60;;;;;;;-141.02;100.00;84585.25;5092172;28;20259;-77
2022/04/28 10:09:05;;;;;;;18.40;17.50;;;;;;;-141.02;100.00;84559.97;5091720;28;20251;-81
2022/04/28 10:11:33;;;;;;;18.10;17.20;;;;;;;-141.02;100.00;84453.09;5091644;28;20674;-73
2022/04/28 10:14:01;;;;;;;18.38;17.48;;;;;;;-141.02;100.00;84583.28;5091889;28;20312;-75
2022/04/28 10:16:28;;;;;;;17.88;16.98;;;;;;;-141.02;100.00;84573.59;5091912;28;20198;-78
2022/04/28 10:19:01;;;;;;;17.77;16.88;;;;;;;-141.02;100.00;84523.06;5091887;28;20194;-72
2022/04/28 10:21:34;;;;;;;17.73;16.83;;;;;;;-141.02;100.00;84575.53;5091639;28;20609;-80
2022/04/28 10:32:55;;;;;;;17.80;16.90;;;;;;;-141.02;100.00;84569.69;5095496;28;20180;-83
2022/04/28 10:35:38;;;;;;;17.85;17.05;;;;;;;-141.02;100.00;84608.56;5095434;28;20190;-75
2022/04/28 10:38:10;;;;;;;17.15;16.35;;;;;;;-141.02;100.00;84596.91;5095502;28;20200;-80
2022/04/28 10:40:39;;;;;;;16.90;16.10;;;;;;;-141.02;100.00;84612.44;5095376;28;20190;-76
2022/04/28 10:43:21;;;;;;;17.13;16.33;;;;;;;-141.02;100.00;84628.00;5095193;28;20212;-77
2022/04/28 10:45:49;;;;;;;17.10;16.30;;;;;;;-141.02;100.00;84635.78;5095302;28;20204;-78
2022/04/28 10:48:29;;;;;;;16.45;15.75;;;;;;;-141.02;100.00;84612.44;5094804;28;20620;-73
2022/04/28 10:51:07;;;;;;;17.13;16.33;;;;;;;-141.02;100.00;84589.13;5095180;28;20280;-76
2022/04/28 10:53:35;;;;;;;17.25;16.45;;;;;;;-141.02;100.00;84542.47;5094718;28;20217;-82
2022/04/28 10:56:12;;;;;;;18.00;17.10;;;;;;;-141.02;100.00;84431.72;5094641;28;20227;-77
2022/04/28 10:58:40;;;;;;;17.42;16.63;;;;;;;-141.02;100.00;84303.47;5095596;28;20285;-79
2022/04/28 11:01:07;;;;;;;17.80;16.92;;;;;;;-141.02;100.00;84470.59;5094612;28;20237;-81
2022/04/28 11:03:48;;;;;;;17.92;17.02;;;;;;;-141.02;100.00;84437.53;5094224;28;20229;-76
2022/04/28 11:06:19;;;;;;;17.88;16.98;;;;;;;-141.02;100.00;84445.31;5094426;28;20622;-79
2022/04/28 11:08:49;;;;;;;18.25;17.35;;;;;;;-141.02;100.00;84410.34;5094873;28;20186;-79
2022/04/28 11:11:16;;;;;;;18.40;17.50;;;;;;;-141.02;100.00;84307.34;5094737;28;20198;-80
2022/04/28 11:13:48;;;;;;;18.20;17.30;;;;;;;-141.02;100.00;84295.69;5094601;28;20268;-79
2022/04/28 11:16:17;;;;;;;17.75;16.85;;;;;;;-141.02;100.00;84324.84;5094579;28;20289;-74
2022/04/28 11:18:44;;;;;;;18.35;17.45;;;;;;;-141.02;100.00;84270.41;5094225;28;20593;-77
2022/04/28 11:21:12;;;;;;;18.08;17.17;;;;;;;-141.02;100.00;84243.22;5094239;28;20288;-75
2022/04/28 11:23:43;;;;;;;18.10;17.20;;;;;;;-141.02;100.00;84175.19;5094246;28;20194;-76
2022/04/28 11:26:11;;;;;;;17.80;16.90;;;;;;;-141.02;100.00;84219.91;5094129;28;20186;-77
2022/04/28 11:28:38;;;;;;;18.63;17.73;;;;;;;-141.02;100.00;84118.84;5094088;28;20189;-76
2022/04/28 11:31:11;;;;;;;18.42;17.52;;;;;;;-141.02;100.00;84013.91;5094875;28;20194;-78